createdAt,value
2018-06-19T00:00:16.982Z,1017.52
2018-06-19T00:01:26.173Z,1017.5
2018-06-19T00:02:35.861Z,1017.5
2018-06-19T00:03:44.777Z,1017.47
2018-06-19T00:04:54.494Z,1017.5
2018-06-19T00:06:03.921Z,1017.47
2018-06-19T00:07:13.099Z,1017.51
2018-06-19T00:08:22.558Z,1017.51
2018-06-19T00:09:31.783Z,1017.48
2018-06-19T00:10:40.706Z,1017.45
2018-06-19T00:11:50.153Z,1017.45
2018-06-19T00:12:59.585Z,1017.41
2018-06-19T00:14:09.278Z,1017.41
2018-06-19T00:15:18.722Z,1017.45
2018-06-19T00:16:27.903Z,1017.44
2018-06-19T00:17:37.603Z,1017.46
2018-06-19T00:18:47.059Z,1017.47
2018-06-19T00:19:56.483Z,1017.52
2018-06-19T00:21:05.918Z,1017.56
2018-06-19T00:22:15.604Z,1017.49
2018-06-19T00:23:25.049Z,1017.48
2018-06-19T00:24:34.758Z,1017.48
2018-06-19T00:25:43.913Z,1017.49
2018-06-19T00:26:53.333Z,1017.5
2018-06-19T00:28:02.252Z,1017.49
2018-06-19T00:29:11.981Z,1017.48
2018-06-19T00:30:21.149Z,1017.47
2018-06-19T00:31:30.865Z,1017.48
2018-06-19T00:32:40.576Z,1017.49
2018-06-19T00:33:49.728Z,1017.5
2018-06-19T00:34:59.421Z,1017.52
2018-06-19T00:36:08.611Z,1017.51
2018-06-19T00:37:17.525Z,1017.52
2018-06-19T00:38:27.223Z,1017.49
2018-06-19T00:39:36.402Z,1017.48
2018-06-19T00:40:45.826Z,1017.51
2018-06-19T00:41:55.262Z,1017.49
2018-06-19T00:43:04.977Z,1017.44
2018-06-19T00:44:14.426Z,1017.39
2018-06-19T00:45:24.382Z,1017.4
2018-06-19T00:46:33.545Z,1017.37
2018-06-19T00:47:42.709Z,1017.39
2018-06-19T00:48:52.655Z,1017.39
2018-06-19T00:50:02.088Z,1017.37
2018-06-19T00:51:11.788Z,1017.36
2018-06-19T00:52:20.941Z,1017.35
2018-06-19T00:53:30.608Z,1017.35
2018-06-19T00:54:40.279Z,1017.34
2018-06-19T00:55:50.227Z,1017.3
2018-06-19T00:57:00.154Z,1017.3
2018-06-19T00:58:09.568Z,1017.32
2018-06-19T00:59:18.979Z,1017.31
2018-06-19T01:00:28.399Z,1017.29
2018-06-19T01:01:37.830Z,1017.29
2018-06-19T01:02:46.989Z,1017.28
2018-06-19T01:03:56.162Z,1017.32
2018-06-19T01:05:05.342Z,1017.33
2018-06-19T01:06:14.790Z,1017.3
2018-06-19T01:07:24.459Z,1017.29
2018-06-19T01:08:34.134Z,1017.36
2018-06-19T01:09:43.829Z,1017.35
2018-06-19T01:10:53.792Z,1017.38
2018-06-19T01:12:03.473Z,1017.41
2018-06-19T01:13:13.152Z,1017.41
2018-06-19T01:14:22.053Z,1017.49
2018-06-19T01:15:31.753Z,1017.44
2018-06-19T01:16:41.203Z,1017.48
2018-06-19T01:17:50.634Z,1017.46
2018-06-19T01:19:00.559Z,1017.51
2018-06-19T01:20:10.006Z,1017.57
2018-06-19T01:21:19.486Z,1017.58
2018-06-19T01:22:28.905Z,1017.56
2018-06-19T01:23:38.099Z,1017.54
2018-06-19T01:24:47.809Z,1017.52
2018-06-19T01:25:57.504Z,1017.49
2018-06-19T01:27:06.932Z,1017.5
2018-06-19T01:28:16.611Z,1017.53
2018-06-19T01:29:26.051Z,1017.49
2018-06-19T01:30:35.743Z,1017.45
2018-06-19T01:31:44.904Z,1017.47
2018-06-19T01:32:53.817Z,1017.48
2018-06-19T01:34:03.241Z,1017.48
2018-06-19T01:35:12.403Z,1017.51
2018-06-19T01:36:22.350Z,1017.44
2018-06-19T01:37:32.300Z,1017.44
2018-06-19T01:38:41.739Z,1017.47
2018-06-19T01:39:51.154Z,1017.45
2018-06-19T01:41:00.321Z,1017.45
2018-06-19T01:42:09.491Z,1017.38
2018-06-19T01:43:18.945Z,1017.38
2018-06-19T01:44:28.626Z,1017.39
2018-06-19T01:45:38.042Z,1017.39
2018-06-19T01:46:47.731Z,1017.43
2018-06-19T01:47:57.152Z,1017.45
2018-06-19T01:49:06.338Z,1017.51
2018-06-19T01:50:15.514Z,1017.52
2018-06-19T01:51:24.681Z,1017.52
2018-06-19T01:52:33.348Z,1017.5
2018-06-19T01:53:43.033Z,1017.55
2018-06-19T01:54:52.214Z,1017.53
2018-06-19T01:56:01.634Z,1017.56
2018-06-19T01:57:11.573Z,1017.56
2018-06-19T01:58:20.996Z,1017.55
2018-06-19T01:59:30.155Z,1017.49
2018-06-19T02:00:40.011Z,1017.51
2018-06-19T02:01:49.691Z,1017.53
2018-06-19T02:02:59.118Z,1017.57
2018-06-19T02:04:08.545Z,1017.53
2018-06-19T02:05:17.710Z,1017.52
2018-06-19T02:06:27.139Z,1017.54
2018-06-19T02:07:36.824Z,1017.5
2018-06-19T02:08:46.508Z,1017.5
2018-06-19T02:09:55.714Z,1017.52
2018-06-19T02:11:05.135Z,1017.5
2018-06-19T02:12:14.625Z,1017.56
2018-06-19T02:13:24.302Z,1017.55
2018-06-19T02:14:33.977Z,1017.52
2018-06-19T02:15:43.140Z,1017.5
2018-06-19T02:16:52.820Z,1017.5
2018-06-19T02:18:02.510Z,1017.48
2018-06-19T02:19:12.201Z,1017.55
2018-06-19T02:20:21.887Z,1017.54
2018-06-19T02:21:31.325Z,1017.53
2018-06-19T02:22:40.748Z,1017.52
2018-06-19T02:23:50.162Z,1017.52
2018-06-19T02:24:59.066Z,1017.51
2018-06-19T02:26:09.006Z,1017.54
2018-06-19T02:27:18.692Z,1017.52
2018-06-19T02:28:27.890Z,1017.52
2018-06-19T02:29:37.059Z,1017.52
2018-06-19T02:30:46.216Z,1017.57
2018-06-19T02:31:55.915Z,1017.6
2018-06-19T02:33:05.604Z,1017.63
2018-06-19T02:34:15.287Z,1017.66
2018-06-19T02:35:25.029Z,1017.65
2018-06-19T02:36:34.958Z,1017.68
2018-06-19T02:37:44.397Z,1017.66
2018-06-19T02:38:53.843Z,1017.69
2018-06-19T02:40:03.519Z,1017.7
2018-06-19T02:41:13.486Z,1017.69
2018-06-19T02:42:22.918Z,1017.72
2018-06-19T02:43:32.599Z,1017.68
2018-06-19T02:44:42.031Z,1017.68
2018-06-19T02:45:51.459Z,1017.73
2018-06-19T02:47:00.891Z,1017.72
2018-06-19T02:48:09.554Z,1017.73
2018-06-19T02:49:19.247Z,1017.68
2018-06-19T02:50:29.191Z,1017.77
2018-06-19T02:51:38.624Z,1017.74
2018-06-19T02:52:48.050Z,1017.76
2018-06-19T02:53:57.479Z,1017.72
2018-06-19T02:55:06.905Z,1017.73
2018-06-19T02:56:16.361Z,1017.76
2018-06-19T02:57:26.068Z,1017.8
2018-06-19T02:58:35.248Z,1017.83
2018-06-19T02:59:44.951Z,1017.83
2018-06-19T03:00:54.683Z,1017.82
2018-06-19T03:02:04.397Z,1017.82
2018-06-19T03:03:13.829Z,1017.84
2018-06-19T03:04:22.749Z,1017.89
2018-06-19T03:05:32.193Z,1017.91
2018-06-19T03:06:41.879Z,1017.91
2018-06-19T03:07:51.998Z,1017.96
2018-06-19T03:09:01.439Z,1017.96
2018-06-19T03:10:11.150Z,1017.95
2018-06-19T03:11:20.870Z,1017.94
2018-06-19T03:12:30.552Z,1017.92
2018-06-19T03:13:39.471Z,1017.95
2018-06-19T03:14:48.944Z,1018.01
2018-06-19T03:15:58.377Z,1018.05
2018-06-19T03:17:07.799Z,1018.01
2018-06-19T03:18:17.263Z,1018.01
2018-06-19T03:19:26.934Z,1018.01
2018-06-19T03:20:36.112Z,1018
2018-06-19T03:21:45.568Z,1018.05
2018-06-19T03:22:54.739Z,1018.01
2018-06-19T03:24:04.185Z,1017.99
2018-06-19T03:25:13.088Z,1018.02
2018-06-19T03:26:22.511Z,1018.05
2018-06-19T03:27:31.696Z,1018.07
2018-06-19T03:28:41.128Z,1018.01
2018-06-19T03:29:50.565Z,1018
2018-06-19T03:30:59.718Z,1017.99
2018-06-19T03:32:09.164Z,1018.01
2018-06-19T03:33:19.132Z,1017.99
2018-06-19T03:34:28.581Z,1017.95
2018-06-19T03:35:37.745Z,1018
2018-06-19T03:36:47.170Z,1018.04
2018-06-19T03:37:57.125Z,1018.05
2018-06-19T03:39:06.587Z,1018.07
2018-06-19T03:40:16.046Z,1018.11
2018-06-19T03:41:25.484Z,1018.09
2018-06-19T03:42:35.176Z,1018.15
2018-06-19T03:43:44.609Z,1018.1
2018-06-19T03:44:54.039Z,1018.13
2018-06-19T03:46:02.968Z,1018.12
2018-06-19T03:47:11.893Z,1018.14
2018-06-19T03:48:21.607Z,1018.11
2018-06-19T03:49:30.520Z,1018.14
2018-06-19T03:50:39.934Z,1018.1
2018-06-19T03:51:49.632Z,1018.17
2018-06-19T03:52:58.559Z,1018.18
2018-06-19T03:54:08.260Z,1018.15
2018-06-19T03:55:17.686Z,1018.17
2018-06-19T03:56:26.859Z,1018.16
2018-06-19T03:57:36.338Z,1018.17
2018-06-19T03:58:45.519Z,1018.18
2018-06-19T03:59:55.471Z,1018.18
2018-06-19T04:01:04.937Z,1018.17
2018-06-19T04:02:14.714Z,1018.19
2018-06-19T04:03:24.149Z,1018.19
2018-06-19T04:04:33.568Z,1018.2
2018-06-19T04:05:42.991Z,1018.17
2018-06-19T04:06:52.429Z,1018.23
2018-06-19T04:08:01.867Z,1018.2
2018-06-19T04:09:10.799Z,1018.18
2018-06-19T04:10:20.280Z,1018.23
2018-06-19T04:11:29.640Z,1018.25
2018-06-19T04:12:39.591Z,1018.3
2018-06-19T04:13:49.013Z,1018.37
2018-06-19T04:14:58.190Z,1018.33
2018-06-19T04:16:06.842Z,1018.33
2018-06-19T04:17:16.603Z,1018.39
2018-06-19T04:18:26.044Z,1018.37
2018-06-19T04:19:35.484Z,1018.41
2018-06-19T04:20:44.395Z,1018.46
2018-06-19T04:21:54.352Z,1018.46
2018-06-19T04:23:03.525Z,1018.45
2018-06-19T04:24:12.954Z,1018.56
2018-06-19T04:25:22.391Z,1018.54
2018-06-19T04:26:31.852Z,1018.55
2018-06-19T04:27:41.561Z,1018.51
2018-06-19T04:28:51.509Z,1018.46
2018-06-19T04:30:00.685Z,1018.47
2018-06-19T04:31:09.589Z,1018.58
2018-06-19T04:32:19.280Z,1018.53
2018-06-19T04:33:29.035Z,1018.5
2018-06-19T04:34:38.792Z,1018.52
2018-06-19T04:35:48.528Z,1018.48
2018-06-19T04:36:58.220Z,1018.51
2018-06-19T04:38:07.913Z,1018.55
2018-06-19T04:39:17.345Z,1018.62
2018-06-19T04:40:26.782Z,1018.6
2018-06-19T04:41:36.769Z,1018.59
2018-06-19T04:42:46.467Z,1018.6
2018-06-19T04:43:55.401Z,1018.61
2018-06-19T04:45:05.108Z,1018.64
2018-06-19T04:46:14.273Z,1018.61
2018-06-19T04:47:24.227Z,1018.64
2018-06-19T04:48:33.390Z,1018.66
2018-06-19T04:49:42.571Z,1018.69
2018-06-19T04:50:52.211Z,1018.71
2018-06-19T04:52:01.639Z,1018.72
2018-06-19T04:53:10.814Z,1018.74
2018-06-19T04:54:19.995Z,1018.69
2018-06-19T04:55:29.680Z,1018.7
2018-06-19T04:56:39.112Z,1018.66
2018-06-19T04:57:48.570Z,1018.73
2018-06-19T04:58:58.249Z,1018.73
2018-06-19T05:00:07.683Z,1018.72
2018-06-19T05:01:16.893Z,1018.67
2018-06-19T05:02:26.574Z,1018.67
2018-06-19T05:03:35.755Z,1018.65
2018-06-19T05:04:45.540Z,1018.68
2018-06-19T05:05:54.991Z,1018.7
2018-06-19T05:07:04.169Z,1018.69
2018-06-19T05:08:13.335Z,1018.72
2018-06-19T05:09:22.504Z,1018.75
2018-06-19T05:10:31.677Z,1018.72
2018-06-19T05:11:41.112Z,1018.78
2018-06-19T05:12:50.292Z,1018.72
2018-06-19T05:13:59.921Z,1018.76
2018-06-19T05:15:09.350Z,1018.76
2018-06-19T05:16:18.776Z,1018.71
2018-06-19T05:17:27.940Z,1018.74
2018-06-19T05:18:36.840Z,1018.77
2018-06-19T05:19:46.007Z,1018.8
2018-06-19T05:20:55.940Z,1018.86
2018-06-19T05:22:05.373Z,1018.83
2018-06-19T05:23:14.792Z,1018.82
2018-06-19T05:24:24.485Z,1018.79
2018-06-19T05:25:33.653Z,1018.8
2018-06-19T05:26:43.073Z,1018.76
2018-06-19T05:27:52.495Z,1018.77
2018-06-19T05:29:01.788Z,1018.73
2018-06-19T05:30:10.966Z,1018.73
2018-06-19T05:31:21.025Z,1018.73
2018-06-19T05:32:30.721Z,1018.76
2018-06-19T05:33:40.163Z,1018.74
2018-06-19T05:34:49.862Z,1018.76
2018-06-19T05:35:59.451Z,1018.72
2018-06-19T05:37:08.923Z,1018.7
2018-06-19T05:38:18.863Z,1018.67
2018-06-19T05:39:27.796Z,1018.66
2018-06-19T05:40:37.958Z,1018.66
2018-06-19T05:41:47.124Z,1018.65
2018-06-19T05:42:56.801Z,1018.69
2018-06-19T05:44:05.961Z,1018.66
2018-06-19T05:45:15.128Z,1018.65
2018-06-19T05:46:24.469Z,1018.6
2018-06-19T05:47:33.272Z,1018.63
2018-06-19T05:48:42.743Z,1018.62
2018-06-19T05:49:51.912Z,1018.65
2018-06-19T05:51:00.828Z,1018.7
2018-06-19T05:52:10.008Z,1018.72
2018-06-19T05:53:19.698Z,1018.74
2018-06-19T05:54:28.889Z,1018.73
2018-06-19T05:55:38.320Z,1018.74
2018-06-19T05:56:47.752Z,1018.75
2018-06-19T05:57:57.170Z,1018.76
2018-06-19T05:59:06.092Z,1018.76
2018-06-19T06:00:15.848Z,1018.75
2018-06-19T06:01:25.309Z,1018.75
2018-06-19T06:02:34.737Z,1018.76
2018-06-19T06:03:44.418Z,1018.73
2018-06-19T06:04:54.166Z,1018.79
2018-06-19T06:06:03.613Z,1018.81
2018-06-19T06:07:13.037Z,1018.84
2018-06-19T06:08:23.002Z,1018.85
2018-06-19T06:09:32.432Z,1018.8
2018-06-19T06:10:41.882Z,1018.82
2018-06-19T06:11:51.072Z,1018.83
2018-06-19T06:13:00.755Z,1018.83
2018-06-19T06:14:09.927Z,1018.82
2018-06-19T06:15:19.921Z,1018.8
2018-06-19T06:16:29.790Z,1018.76
2018-06-19T06:17:40.100Z,1018.78
2018-06-19T06:18:49.322Z,1018.76
2018-06-19T06:19:59.302Z,1018.77
2018-06-19T06:21:09.012Z,1018.8
2018-06-19T06:22:18.701Z,1018.82
2018-06-19T06:23:27.358Z,1018.81
2018-06-19T06:24:36.789Z,1018.81
2018-06-19T06:25:45.987Z,1018.78
2018-06-19T06:26:55.414Z,1018.81
2018-06-19T06:28:04.850Z,1018.84
2018-06-19T06:29:14.297Z,1018.86
2018-06-19T06:30:24.021Z,1018.84
2018-06-19T06:31:32.932Z,1018.84
2018-06-19T06:32:41.859Z,1018.85
2018-06-19T06:33:50.769Z,1018.85
2018-06-19T06:34:59.950Z,1018.92
2018-06-19T06:36:09.121Z,1018.95
2018-06-19T06:37:18.817Z,1018.89
2018-06-19T06:38:28.516Z,1018.94
2018-06-19T06:39:38.231Z,1018.95
2018-06-19T06:40:47.411Z,1018.98
2018-06-19T06:41:57.086Z,1018.97
2018-06-19T06:43:06.520Z,1019
2018-06-19T06:44:15.953Z,1019.01
2018-06-19T06:45:25.911Z,1019.01
2018-06-19T06:46:34.829Z,1018.99
2018-06-19T06:47:43.998Z,1018.98
2018-06-19T06:48:53.425Z,1018.97
2018-06-19T06:50:02.614Z,1018.98
2018-06-19T06:51:11.533Z,1019
2018-06-19T06:52:21.509Z,1018.95
2018-06-19T06:53:30.944Z,1019.04
2018-06-19T06:54:40.370Z,1019.02
2018-06-19T06:55:50.059Z,1019.03
2018-06-19T06:56:59.244Z,1019.05
2018-06-19T06:58:08.672Z,1018.98
2018-06-19T06:59:17.855Z,1019.01
2018-06-19T07:00:26.766Z,1019.01
2018-06-19T07:01:35.941Z,1018.98
2018-06-19T07:02:44.914Z,1019
2018-06-19T07:03:54.353Z,1018.94
2018-06-19T07:05:03.816Z,1018.98
2018-06-19T07:06:13.274Z,1018.99
2018-06-19T07:07:22.737Z,1018.99
2018-06-19T07:08:32.492Z,1019
2018-06-19T07:09:41.682Z,1019.02
2018-06-19T07:10:51.103Z,1019.02
2018-06-19T07:12:01.056Z,1019.06
2018-06-19T07:13:10.498Z,1019.05
2018-06-19T07:14:19.723Z,1019.11
2018-06-19T07:15:28.885Z,1019.08
2018-06-19T07:16:38.820Z,1019.1
2018-06-19T07:17:48.038Z,1019.08
2018-06-19T07:18:57.542Z,1019.08
2018-06-19T07:20:07.721Z,1019.08
2018-06-19T07:21:16.904Z,1019.11
2018-06-19T07:22:26.413Z,1019.15
2018-06-19T07:23:36.309Z,1019.14
2018-06-19T07:24:45.737Z,1019.17
2018-06-19T07:25:54.963Z,1019.16
2018-06-19T07:27:04.962Z,1019.19
2018-06-19T07:28:14.922Z,1019.17
2018-06-19T07:29:24.341Z,1019.18
2018-06-19T07:30:33.759Z,1019.22
2018-06-19T07:31:42.932Z,1019.2
2018-06-19T07:32:52.368Z,1019.19
2018-06-19T07:34:01.337Z,1019.19
2018-06-19T07:35:10.525Z,1019.21
2018-06-19T07:36:20.008Z,1019.21
2018-06-19T07:37:29.167Z,1019.26
2018-06-19T07:38:38.589Z,1019.27
2018-06-19T07:39:47.777Z,1019.27
2018-06-19T07:40:57.249Z,1019.27
2018-06-19T07:42:06.998Z,1019.27
2018-06-19T07:43:16.695Z,1019.25
2018-06-19T07:44:26.642Z,1019.23
2018-06-19T07:45:35.809Z,1019.19
2018-06-19T07:46:45.228Z,1019.25
2018-06-19T07:47:54.635Z,1019.29
2018-06-19T07:49:04.312Z,1019.3
2018-06-19T07:50:13.472Z,1019.3
2018-06-19T07:51:22.901Z,1019.31
2018-06-19T07:52:32.612Z,1019.31
2018-06-19T07:53:42.082Z,1019.35
2018-06-19T07:54:51.782Z,1019.35
2018-06-19T07:56:01.549Z,1019.29
2018-06-19T07:57:10.710Z,1019.33
2018-06-19T07:58:19.990Z,1019.37
2018-06-19T07:59:29.675Z,1019.35
2018-06-19T08:00:38.857Z,1019.33
2018-06-19T08:01:48.297Z,1019.37
2018-06-19T08:02:57.734Z,1019.38
2018-06-19T08:04:07.161Z,1019.39
2018-06-19T08:05:17.100Z,1019.39
2018-06-19T08:06:26.533Z,1019.39
2018-06-19T08:07:36.224Z,1019.42
2018-06-19T08:08:45.901Z,1019.42
2018-06-19T08:09:55.604Z,1019.42
2018-06-19T08:11:04.791Z,1019.43
2018-06-19T08:12:14.218Z,1019.38
2018-06-19T08:13:23.673Z,1019.42
2018-06-19T08:14:33.972Z,1019.38
2018-06-19T08:15:43.941Z,1019.4
2018-06-19T08:16:53.139Z,1019.42
2018-06-19T08:18:02.846Z,1019.44
2018-06-19T08:19:12.809Z,1019.43
2018-06-19T08:20:22.238Z,1019.46
2018-06-19T08:21:31.938Z,1019.45
2018-06-19T08:22:41.658Z,1019.46
2018-06-19T08:23:51.668Z,1019.47
2018-06-19T08:25:00.844Z,1019.47
2018-06-19T08:26:10.020Z,1019.47
2018-06-19T08:27:19.204Z,1019.42
2018-06-19T08:28:28.924Z,1019.43
2018-06-19T08:29:38.101Z,1019.48
2018-06-19T08:30:47.567Z,1019.41
2018-06-19T08:31:56.997Z,1019.45
2018-06-19T08:33:06.168Z,1019.44
2018-06-19T08:34:15.607Z,1019.45
2018-06-19T08:35:25.285Z,1019.49
2018-06-19T08:36:34.525Z,1019.5
2018-06-19T08:37:44.011Z,1019.53
2018-06-19T08:38:53.726Z,1019.51
2018-06-19T08:40:03.159Z,1019.51
2018-06-19T08:41:12.988Z,1019.55
2018-06-19T08:42:22.278Z,1019.57
2018-06-19T08:43:31.523Z,1019.54
2018-06-19T08:44:41.195Z,1019.57
2018-06-19T08:45:49.892Z,1019.54
2018-06-19T08:46:59.108Z,1019.55
2018-06-19T08:48:08.778Z,1019.61
2018-06-19T08:49:18.478Z,1019.58
2018-06-19T08:50:28.144Z,1019.61
2018-06-19T08:51:38.011Z,1019.57
2018-06-19T08:52:47.442Z,1019.62
2018-06-19T08:53:56.607Z,1019.66
2018-06-19T08:55:05.778Z,1019.64
2018-06-19T08:56:15.045Z,1019.68
2018-06-19T08:57:24.227Z,1019.69
2018-06-19T08:58:34.180Z,1019.68
2018-06-19T08:59:43.445Z,1019.67
2018-06-19T09:00:52.881Z,1019.69
2018-06-19T09:02:02.048Z,1019.72
2018-06-19T09:03:11.240Z,1019.73
2018-06-19T09:04:20.396Z,1019.76
2018-06-19T09:05:29.564Z,1019.73
2018-06-19T09:06:38.485Z,1019.7
2018-06-19T09:07:47.922Z,1019.74
2018-06-19T09:08:57.358Z,1019.74
2018-06-19T09:10:06.537Z,1019.73
2018-06-19T09:11:16.221Z,1019.74
2018-06-19T09:12:25.130Z,1019.8
2018-06-19T09:13:34.883Z,1019.77
2018-06-19T09:14:44.065Z,1019.79
2018-06-19T09:15:53.751Z,1019.76
2018-06-19T09:17:03.165Z,1019.77
2018-06-19T09:18:12.100Z,1019.81
2018-06-19T09:19:21.305Z,1019.8
2018-06-19T09:20:31.018Z,1019.82
2018-06-19T09:21:40.727Z,1019.81
2018-06-19T09:22:50.608Z,1019.79
2018-06-19T09:23:59.522Z,1019.86
2018-06-19T09:25:09.229Z,1019.84
2018-06-19T09:26:18.208Z,1019.88
2018-06-19T09:27:27.898Z,1019.91
2018-06-19T09:28:37.611Z,1019.87
2018-06-19T09:29:47.048Z,1019.89
2018-06-19T09:30:56.236Z,1019.88
2018-06-19T09:32:05.688Z,1019.88
2018-06-19T09:33:15.643Z,1019.83
2018-06-19T09:34:24.809Z,1019.82
2018-06-19T09:35:34.248Z,1019.84
2018-06-19T09:36:43.937Z,1019.82
2018-06-19T09:37:53.628Z,1019.85
2018-06-19T09:39:03.319Z,1019.86
2018-06-19T09:40:12.244Z,1019.88
2018-06-19T09:41:21.697Z,1019.89
2018-06-19T09:42:30.888Z,1019.87
2018-06-19T09:43:40.321Z,1019.88
2018-06-19T09:44:49.768Z,1019.85
2018-06-19T09:45:58.673Z,1019.86
2018-06-19T09:47:08.155Z,1019.84
2018-06-19T09:48:17.156Z,1019.84
2018-06-19T09:49:26.337Z,1019.83
2018-06-19T09:50:35.807Z,1019.8
2018-06-19T09:51:44.954Z,1019.81
2018-06-19T09:52:54.623Z,1019.87
2018-06-19T09:54:04.310Z,1019.88
2018-06-19T09:55:13.739Z,1019.89
2018-06-19T09:56:23.195Z,1019.89
2018-06-19T09:57:32.636Z,1019.91
2018-06-19T09:58:41.812Z,1019.86
2018-06-19T09:59:50.984Z,1019.9
2018-06-19T10:01:00.437Z,1019.89
2018-06-19T10:02:10.147Z,1019.89
2018-06-19T10:03:19.846Z,1019.94
2018-06-19T10:04:28.768Z,1019.91
2018-06-19T10:05:38.531Z,1019.89
2018-06-19T10:06:48.603Z,1019.9
2018-06-19T10:07:58.029Z,1019.9
2018-06-19T10:09:07.186Z,1019.88
2018-06-19T10:10:16.624Z,1019.89
2018-06-19T10:11:26.048Z,1019.86
2018-06-19T10:12:35.564Z,1019.85
2018-06-19T10:13:44.736Z,1019.86
2018-06-19T10:14:54.422Z,1019.88
2018-06-19T10:16:03.891Z,1019.87
2018-06-19T10:17:13.097Z,1019.87
2018-06-19T10:18:22.550Z,1019.89
2018-06-19T10:19:32.001Z,1019.91
2018-06-19T10:20:42.146Z,1019.91
2018-06-19T10:21:51.585Z,1019.88
2018-06-19T10:23:01.035Z,1019.9
2018-06-19T10:24:11.199Z,1019.94
2018-06-19T10:25:20.634Z,1019.97
2018-06-19T10:26:30.124Z,1019.98
2018-06-19T10:27:39.597Z,1019.99
2018-06-19T10:28:49.560Z,1020.03
2018-06-19T10:29:59.223Z,1019.98
2018-06-19T10:31:08.977Z,1020.02
2018-06-19T10:32:18.431Z,1020.02
2018-06-19T10:33:27.459Z,1020.05
2018-06-19T10:34:36.922Z,1019.99
2018-06-19T10:35:46.397Z,1020.06
2018-06-19T10:36:56.189Z,1020
2018-06-19T10:38:05.359Z,1020.05
2018-06-19T10:39:14.532Z,1019.99
2018-06-19T10:40:23.708Z,1020.03
2018-06-19T10:41:32.915Z,1020.04
2018-06-19T10:42:42.079Z,1020.02
2018-06-19T10:43:51.777Z,1020.03
2018-06-19T10:45:01.222Z,1020.06
2018-06-19T10:46:10.934Z,1020.07
2018-06-19T10:47:20.619Z,1020.07
2018-06-19T10:48:30.303Z,1020.08
2018-06-19T10:49:39.484Z,1020.08
2018-06-19T10:50:49.179Z,1020.08
2018-06-19T10:51:58.861Z,1020.11
2018-06-19T10:53:07.767Z,1020.13
2018-06-19T10:54:16.954Z,1020.12
2018-06-19T10:55:26.376Z,1020.11
2018-06-19T10:56:35.533Z,1020.07
2018-06-19T10:57:44.997Z,1020.04
2018-06-19T10:58:54.017Z,1020.05
2018-06-19T11:00:03.630Z,1020.07
2018-06-19T11:01:13.047Z,1020.09
2018-06-19T11:02:22.217Z,1020.06
2018-06-19T11:03:31.639Z,1020.08
2018-06-19T11:04:41.062Z,1020.11
2018-06-19T11:05:50.476Z,1020.11
2018-06-19T11:07:00.155Z,1020.1
2018-06-19T11:08:09.152Z,1020.1
2018-06-19T11:09:18.999Z,1020.11
2018-06-19T11:10:28.673Z,1020.1
2018-06-19T11:11:37.825Z,1020.12
2018-06-19T11:12:46.991Z,1020.11
2018-06-19T11:13:56.162Z,1020.1
2018-06-19T11:15:05.960Z,1020.04
2018-06-19T11:16:15.402Z,1020.04
2018-06-19T11:17:25.081Z,1020.03
2018-06-19T11:18:34.786Z,1020.05
2018-06-19T11:19:44.467Z,1020.08
2018-06-19T11:20:53.915Z,1020.07
2018-06-19T11:22:02.585Z,1020.09
2018-06-19T11:23:12.026Z,1020.09
2018-06-19T11:24:21.190Z,1020.05
2018-06-19T11:25:30.622Z,1020
2018-06-19T11:26:40.912Z,1020.11
2018-06-19T11:27:50.347Z,1020.09
2018-06-19T11:28:59.610Z,1020.12
2018-06-19T11:30:08.924Z,1020.1
2018-06-19T11:31:18.362Z,1020.12
2018-06-19T11:32:27.560Z,1020.1
2018-06-19T11:33:37.303Z,1020.08
2018-06-19T11:34:45.968Z,1020.12
2018-06-19T11:35:55.370Z,1020.12
2018-06-19T11:37:04.836Z,1020.12
2018-06-19T11:38:14.269Z,1020.14
2018-06-19T11:39:23.692Z,1020.1
2018-06-19T11:40:32.872Z,1020.09
2018-06-19T11:41:41.780Z,1020.09
2018-06-19T11:42:51.233Z,1020.1
2018-06-19T11:44:00.921Z,1020.08
2018-06-19T11:45:10.603Z,1020.08
2018-06-19T11:46:19.775Z,1020.08
2018-06-19T11:47:29.202Z,1020.05
2018-06-19T11:48:38.379Z,1020.05
2018-06-19T11:49:48.065Z,1020.09
2018-06-19T11:50:57.739Z,1020.1
2018-06-19T11:52:07.201Z,1020.11
2018-06-19T11:53:16.880Z,1020.08
2018-06-19T11:54:26.552Z,1020.08
2018-06-19T11:55:36.119Z,1020.09
2018-06-19T11:56:45.616Z,1020.11
2018-06-19T11:57:55.314Z,1020.07
2018-06-19T11:59:05.002Z,1020.06
2018-06-19T12:00:14.420Z,1020.09
2018-06-19T12:01:23.602Z,1020.09
2018-06-19T12:02:33.023Z,1020.04
2018-06-19T12:03:42.431Z,1020.04
2018-06-19T12:04:51.595Z,1020.08
2018-06-19T12:06:00.753Z,1020.04
2018-06-19T12:07:09.925Z,1020.02
2018-06-19T12:08:19.608Z,1020.02
2018-06-19T12:09:29.027Z,1020.02
2018-06-19T12:10:38.721Z,1020.03
2018-06-19T12:11:47.630Z,1019.98
2018-06-19T12:12:57.065Z,1019.99
2018-06-19T12:14:06.282Z,1019.98
2018-06-19T12:15:15.446Z,1019.95
2018-06-19T12:16:24.602Z,1019.96
2018-06-19T12:17:34.279Z,1019.94
2018-06-19T12:18:43.465Z,1019.98
2018-06-19T12:19:53.194Z,1019.99
2018-06-19T12:21:02.107Z,1020.01
2018-06-19T12:22:11.774Z,1020
2018-06-19T12:23:21.192Z,1019.96
2018-06-19T12:24:30.606Z,1019.96
2018-06-19T12:25:40.330Z,1019.94
2018-06-19T12:26:49.784Z,1019.97
2018-06-19T12:27:59.457Z,1020
2018-06-19T12:29:08.622Z,1020.02
2018-06-19T12:30:18.050Z,1020
2018-06-19T12:31:27.213Z,1020.01
2018-06-19T12:32:35.854Z,1019.96
2018-06-19T12:33:45.023Z,1019.96
2018-06-19T12:34:54.711Z,1020.03
2018-06-19T12:36:04.175Z,1019.98
2018-06-19T12:37:13.089Z,1019.99
2018-06-19T12:38:23.177Z,1019.95
2018-06-19T12:39:32.585Z,1019.93
2018-06-19T12:40:41.737Z,1019.99
2018-06-19T12:41:50.659Z,1019.97
2018-06-19T12:43:00.142Z,1019.98
2018-06-19T12:44:09.708Z,1020
2018-06-19T12:45:19.386Z,1020
2018-06-19T12:46:28.544Z,1020.01
2018-06-19T12:47:37.958Z,1020.02
2018-06-19T12:48:47.634Z,1020.01
2018-06-19T12:49:57.394Z,1020
2018-06-19T12:51:07.088Z,1020.03
2018-06-19T12:52:16.764Z,1019.99
2018-06-19T12:53:26.215Z,1020
2018-06-19T12:54:35.637Z,1020
2018-06-19T12:55:44.785Z,1020.04
2018-06-19T12:56:54.203Z,1019.99
2018-06-19T12:58:03.628Z,1020.01
2018-06-19T12:59:13.052Z,1020.01
2018-06-19T13:00:22.732Z,1020.05
2018-06-19T13:01:31.894Z,1020.06
2018-06-19T13:02:41.327Z,1020.07
2018-06-19T13:03:51.004Z,1020.09
2018-06-19T13:05:00.187Z,1020.14
2018-06-19T13:06:09.611Z,1020.1
2018-06-19T13:07:19.016Z,1020.13
2018-06-19T13:08:28.944Z,1020.13
2018-06-19T13:09:38.615Z,1020.18
2018-06-19T13:10:48.412Z,1020.17
2018-06-19T13:11:58.086Z,1020.14
2018-06-19T13:13:07.250Z,1020.16
2018-06-19T13:14:16.407Z,1020.15
2018-06-19T13:15:25.834Z,1020.15
2018-06-19T13:16:35.504Z,1020.13
2018-06-19T13:17:45.227Z,1020.13
2018-06-19T13:18:54.137Z,1020.11
2018-06-19T13:20:03.283Z,1020.09
2018-06-19T13:21:12.971Z,1020.09
2018-06-19T13:22:22.131Z,1020.1
2018-06-19T13:23:31.824Z,1020.09
2018-06-19T13:24:41.045Z,1020.09
2018-06-19T13:25:50.197Z,1020.09
2018-06-19T13:26:59.641Z,1020.08
2018-06-19T13:28:09.324Z,1020.07
2018-06-19T13:29:19.035Z,1020.06
2018-06-19T13:30:28.318Z,1020.07
2018-06-19T13:31:37.486Z,1020.04
2018-06-19T13:32:46.652Z,1020.04
2018-06-19T13:33:56.318Z,1020.04
2018-06-19T13:35:05.743Z,1020.03
2018-06-19T13:36:14.905Z,1020.08
2018-06-19T13:37:24.339Z,1020.05
2018-06-19T13:38:33.261Z,1020.07
2018-06-19T13:39:42.679Z,1020.08
2018-06-19T13:40:52.363Z,1020.09
2018-06-19T13:42:01.082Z,1020.1
2018-06-19T13:43:10.682Z,1020.09
2018-06-19T13:44:19.840Z,1020.11
2018-06-19T13:45:29.000Z,1020.08
2018-06-19T13:46:38.690Z,1020.1
2018-06-19T13:47:48.145Z,1020.09
2018-06-19T13:48:57.553Z,1020.07
2018-06-19T13:50:06.975Z,1020.12
2018-06-19T13:51:16.408Z,1020.11
2018-06-19T13:52:25.858Z,1020.11
2018-06-19T13:53:35.028Z,1020.11
2018-06-19T13:54:44.175Z,1020.13
2018-06-19T13:55:53.354Z,1020.12
2018-06-19T13:57:02.767Z,1020.11
2018-06-19T13:58:12.472Z,1020.1
2018-06-19T13:59:22.210Z,1020.1
2018-06-19T14:00:31.727Z,1020.05
2018-06-19T14:01:41.301Z,1020.09
2018-06-19T14:02:51.752Z,1020.07
2018-06-19T14:04:01.179Z,1020.03